Warning: Javascript must be enabled to use all the features on this page!


Page Loading - Please Wait...

Click to hideNews Bulletins

Peak Streamflow for the Nation

USGS 09485000 RINCON CREEK NEAR TUCSON, AZ.

Pima County, Arizona
Hydrologic Unit Code 15050302
Latitude  32°07'46", Longitude 110°37'31" NAD27
Drainage area 44.8  square miles
Gage datum 3,120 feet above NGVD29
Output formats
Table
Graph
Tab-separated file
peakfq (watstore) format
Reselect output format
Water
Year
Date Gage
Height
(feet)
Stream-
flow
(cfs)
1953 1953-07-30 3.78 194
1954 1954-08-19 6.50 2,160
1955 1955-08-03 9.90 8,250
1956 1956-07-20 4.35 150
1957 1957-01-09 7.37 3,570
1958 1958-03-22 5.462 492
1959 1958-10-21 8.50 5,220
1960 1960-01-12 5.69 747
1961 1961-08-22 6.92 2,600
1962 1962-01-24 4.36 227
1963 1963-08-25 7.47 3,420
1964 1964-09-23 5.30 948
1965 1965-08-18 4.68 311
1966 1965-12-22 7.25 3,100
1967 1967-08-13 3.90 157
1968 1968-02-12 6.26 1,860
1969 1969-09-06 4.88 548
1970 1970-08-01 5.67 1,200
1971 1971-08-19 10.50 9,660
1972 1972-07-16 4.55 360
1973 1972-10-19 5.89 1,440
1974 1974-08-01 4.94 664
1975 1975-09-02 4.63 340
1976 1976 4.43Bm 230Bm
1977 1977-01 4.15Bd 127Bd
1978 1978-01-15 6.71 2,440
1979 1978-12-18 8.23 4,890
1980 1980-02-14 4.81 586
1981 1981-08-01 4.07 236
1982 1982-08-23 6.23 1,800
1983 1983-01-30 4.98 688
1984 1983-10-02 8.80 5,640
1985 1985-01-26 4.93 647
1986 1986-07-15 5.61 1,170
1987 1986-12-07 4.74 535
1988 1988-08-02 6.94 2,640
1989 1989-07-25 3.45 88.0
1990 1990-07-24 9.13 6,320
1991 1991-03-02 5.62 1,180
1992 1992-02-13 5.02 871
1993 1993-01-08 7.62 3,720
1994 1994-03-20 3.93 237
1995 1995-02-15 6.21 1,880
1996 1996-09-04 2.95 27.0
1997 1997-03-03 3.23 47.0
1998 1998-07-07 5.70 1,390
1999 1999-07-15 5.28 1,040
2000 2000-08-29 6.84 2,620
2001 2000-10-23 5.07 894
2002 2002-08-05 3.42 88.0
2003 2003-03-22 2.93 23.0
2004 2004-03-07 3.51 103
2005 2005-02-12 5.85 1,520
2006 2006-07-31 12.70 15,000
2007 2007-07-28 3.93 250
2008 2008-07-11 6.08 1,530
2009 2009-09-05 4.74 606
2010 2010-07-30 5.65 1,170
2011 2011-07-20 6.155 1,5902
2012 2012-07-29 2.96 23.0
2013 2013-09-09 2.74 8.20
2014 2014-08-19 5.49 1,050
2015 2015-08-11 8.46 4,570
2016 2016-09-08 6.43 1,560
2017 2017-07-29 9.32 3,520
2018 2018-02-15   3222
2019 2019-02-15 6.47 8862
2020 2020-09-08 3.72 137
2021 2021-07-27 6.76 1,0102
?
  Peak Gage-Height Qualification Codes.
?
  Peak Streamflow Qualification Codes.